Latest Coastal Weather Observations for Rhyll

IDV60701

Issued at 4:11 pm EST Sunday 5 July 2015 (issued every 10 minutes, with the page automatically refreshed every 10 minutes)

About coastal observations | Map of coastal stations | Coastal observations for VIC | Marine services | Other Formats
Station Details ID: 086373 Name: RHYLL Lat: -38.46 Lon: 145.31 Height: 13.4 m
Data from the previous 72 hours. | See also: Recent months at Rhyll
Date/Time
EST
Temp

°C
Wind Pressure Rain
since 9am
mm
Weather Cloud Vis
km
Sea
Height
m
Swell
Dir
 
Speed
knots
Gust
knots
hPa Trend Height
m
Period
s
Dir
05/04:00pm 12.9 NNW 13 19 1016.6 - 0.0 - - - - - - -
05/03:30pm 13.1 NNW 15 19 1016.4 - 0.0 - - - - - - -
05/03:00pm 13.1 N 14 17 1016.6 - 0.0 - - - - - - -
05/02:30pm 12.9 NNW 12 15 1016.9 - 0.0 - - - - - - -
05/02:00pm 13.4 NNW 11 14 1017.1 - 0.0 - - - - - - -
05/01:30pm 13.1 NNW 13 19 1017.3 - 0.0 - - - - - - -
05/01:00pm 13.1 NNW 11 15 1017.7 - 0.0 - - - - - - -
05/12:30pm 12.9 NNW 11 15 1018.0 - 0.0 - - - - - - -
05/12:00pm 12.6 NNW 12 17 1018.4 - 0.0 - - - - - - -
05/11:30am 12.1 NNW 11 18 1018.8 - 0.0 - - - - - - -
05/11:00am 11.4 NNW 14 20 1019.3 - 0.0 - - - - - - -
05/10:30am 10.9 NNW 16 21 1019.4 - 0.0 - - - - - - -
05/10:00am 10.7 NNW 16 22 1019.4 - 0.0 - - - - - - -
05/09:30am 10.5 NNW 15 21 1019.4 - 0.0 - - - - - - -
05/09:00am 10.0 NNW 16 20 1019.3 - 0.2 - - - - - - -
05/08:30am 9.6 NNW 15 19 1019.3 - 0.2 - - - - - - -
05/08:00am 9.6 NNW 17 21 1019.2 - 0.2 - - - - - - -
05/07:30am 9.7 NNW 17 22 1019.1 - 0.2 - - - - - - -
05/07:00am 9.7 NNW 14 18 1019.1 - 0.2 - - - - - - -
05/06:30am 9.6 NNW 13 17 1019.1 - 0.2 - - - - - - -
05/06:00am 9.9 NNW 13 18 1019.1 - 0.2 - - - - - - -
05/05:30am 9.9 NNW 13 19 1019.0 - 0.2 - - - - - - -
05/05:00am 10.0 NNW 14 18 1018.9 - 0.2 - - - - - - -
05/04:30am 10.0 NNW 15 20 1019.0 - 0.2 - - - - - - -
05/04:00am 9.8 NNW 17 21 1019.1 - 0.2 - - - - - - -
05/03:30am 9.8 NNW 18 23 1019.2 - 0.2 - - - - - - -
05/03:00am 9.9 NNW 18 22 1019.4 - 0.2 - - - - - - -
05/02:30am 10.1 NNW 15 20 1019.6 - 0.2 - - - - - - -
05/02:00am 10.4 NNW 16 20 1019.7 - 0.2 - - - - - - -
05/01:30am 10.4 NNW 16 19 1019.8 - 0.2 - - - - - - -
05/01:00am 10.4 NNW 15 20 1019.9 - 0.2 - - - - - - -
05/12:30am 10.3 NNW 15 19 1020.1 - 0.2 - - - - - - -
05/12:00am 10.6 NNW 11 16 1020.2 - 0.2 - - - - - - -
 
Date/Time
EST
Temp

°C
Wind Pressure Rain
since 9am
mm
Weather Cloud Vis
km
Sea
Height
m
Swell
Dir
 
Speed
knots
Gust
knots
hPa Trend Height
m
Period
s
Dir
04/11:30pm 10.5 NNW 12 17 1020.3 - 0.2 - - - - - - -
04/11:00pm 10.3 NNW 11 16 1020.4 - 0.2 - - - - - - -
04/10:30pm 10.1 NNW 12 16 1020.4 - 0.2 - - - - - - -
04/10:00pm 9.5 NNW 11 15 1020.7 - 0.2 - - - - - - -
04/09:30pm 9.7 NNW 13 18 1020.8 - 0.2 - - - - - - -
04/09:00pm 9.7 NNW 12 17 1020.7 - 0.2 - - - - - - -
04/08:30pm 9.7 NNW 12 16 1021.0 - 0.2 - - - - - - -
04/08:00pm 9.4 NNW 13 17 1021.0 - 0.2 - - - - - - -
04/07:30pm 9.5 NNW 13 18 1021.0 - 0.2 - - - - - - -
04/07:00pm 9.3 NNW 12 17 1020.8 - 0.2 - - - - - - -
04/06:30pm 9.4 NNW 12 18 1020.8 - 0.2 - - - - - - -
04/06:00pm 9.6 NNW 12 17 1020.6 - 0.2 - - - - - - -
04/05:30pm 9.6 NNW 13 19 1020.4 - 0.2 - - - - - - -
04/05:00pm 9.4 NNW 14 19 1020.3 - 0.2 - - - - - - -
04/04:30pm 9.7 NNW 14 19 1020.4 - 0.2 - - - - - - -
04/04:00pm 9.9 NNW 13 18 1020.3 - 0.2 - - - - - - -
04/03:30pm 10.1 NNW 13 19 1020.3 - 0.2 - - - - - - -
04/03:00pm 10.1 NNW 12 19 1020.2 - 0.2 - - - - - - -
04/02:30pm 10.3 NNW 10 16 1020.0 - 0.2 - - - - - - -
04/02:00pm 10.3 NNW 13 19 1020.1 - 0.2 - - - - - - -
04/01:30pm 10.3 NNW 12 17 1020.2 - 0.2 - - - - - - -
04/01:00pm 10.1 NNW 12 18 1020.5 - 0.2 - - - - - - -
04/12:30pm 9.7 NNW 12 19 1020.7 - 0.2 - - - - - - -
04/12:00pm 9.3 NNW 13 17 1020.9 - 0.2 - - - - - - -
04/11:30am 9.3 NNW 13 18 1021.4 - 0.2 - - - - - - -
04/11:00am 9.1 NNW 11 17 1021.7 - 0.2 - - - - - - -
04/10:30am 8.6 NNW 14 18 1021.8 - 0.2 - - - - - - -
04/10:00am 8.4 NNW 14 20 1021.7 - 0.2 - - - - - - -
04/09:30am 8.2 NNW 12 16 1021.6 - 0.2 - - - - - - -
04/09:00am 8.5 NNW 10 15 1021.4 - 1.4 Rain - - - - - -
04/08:30am 8.1 NNW 12 18 1021.4 - 0.8 - - - - - - -
04/08:00am 9.1 NNW 12 16 1021.1 - 0.0 - - - - - - -
04/07:30am 8.9 NNW 13 17 1021.0 - 0.0 - - - - - - -
04/07:00am 9.0 NNW 13 19 1021.0 - 0.0 - - - - - - -
04/06:30am 8.8 NNW 15 21 1021.0 - 0.0 - - - - - - -
04/06:00am 9.2 NNW 13 18 1021.0 - 0.0 - - - - - - -
04/05:30am 9.1 NNW 12 17 1021.1 - 0.0 - - - - - - -
04/05:00am 9.4 NNW 14 19 1020.9 - 0.0 - - - - - - -
04/04:30am 9.3 NNW 14 19 1021.0 - 0.0 - - - - - - -
04/04:00am 9.3 NNW 12 19 1021.3 - 0.0 - - - - - - -
04/03:30am 9.3 NNW 14 17 1021.5 - 0.0 - - - - - - -
04/03:00am 9.4 NNW 12 17 1021.9 - 0.0 - - - - - - -
04/02:30am 9.3 NNW 12 18 1022.0 - 0.0 - - - - - - -
04/02:00am 9.5 NW 9 15 1022.4 - 0.0 - - - - - - -
04/01:30am 9.5 NNW 11 15 1022.4 - 0.0 - - - - - - -
04/01:00am 9.4 NNW 8 13 1022.7 - 0.0 - - - - - - -
04/12:30am 9.4 NNW 10 16 1023.1 - 0.0 - - - - - - -
04/12:00am 9.4 NNW 12 17 1023.3 - 0.0 - - - - - - -
 
Date/Time
EST
Temp

°C
Wind Pressure Rain
since 9am
mm
Weather Cloud Vis
km
Sea
Height
m
Swell
Dir
 
Speed
knots
Gust
knots
hPa Trend Height
m
Period
s
Dir
03/11:30pm 9.6 NNW 12 16 1023.3 - 0.0 - - - - - - -
03/11:00pm 9.6 NNW 10 15 1023.6 - 0.0 - - - - - - -
03/10:30pm 9.6 NW 8 14 1023.7 - 0.0 - - - - - - -
03/10:00pm 9.7 NNW 9 15 1023.9 - 0.0 - - - - - - -
03/09:30pm 9.3 NW 5 10 1024.5 - 0.0 - - - - - - -
03/09:00pm 9.3 NW 7 12 1024.6 - 0.0 - - - - - - -
03/08:30pm 9.2 NW 5 10 1024.8 - 0.0 - - - - - - -
03/08:00pm 9.2 NW 5 9 1024.9 - 0.0 - - - - - - -
03/07:30pm 9.2 NW 5 8 1025.1 - 0.0 - - - - - - -
03/07:00pm 9.3 WNW 4 9 1025.0 - 0.0 - - - - - - -
03/06:30pm 9.2 WNW 5 11 1025.1 - 0.0 - - - - - - -
03/06:00pm 9.4 WNW 4 9 1025.1 - 0.0 - - - - - - -
03/05:30pm 9.7 NW 4 9 1025.0 - 0.0 - - - - - - -
03/05:00pm 9.9 NW 5 9 1025.2 - 0.0 - - - - - - -
03/04:30pm 10.0 WNW 3 8 1025.4 - 0.0 - - - - - - -
03/04:00pm 10.1 WNW 4 8 1025.5 - 0.0 - - - - - - -
03/03:30pm 10.4 W 6 13 1025.5 - 0.0 - - - - - - -
03/03:00pm 10.5 W 4 7 1025.5 - 0.0 - - - - - - -
03/02:30pm 10.4 W 4 9 1025.5 - 0.0 - - - - - - -
03/02:00pm 10.7 W 3 7 1025.8 - 0.0 - - - - - - -
03/01:30pm 10.6 WNW 4 7 1026.1 - 0.0 - - - - - - -
03/01:00pm 10.0 W 6 11 1026.3 - 0.0 - - - - - - -
03/12:30pm 10.0 NW 5 8 1026.6 - 0.0 - - - - - - -
03/12:00pm 9.8 WNW 4 8 1027.0 - 0.0 - - - - - - -
03/11:30am 9.8 WNW 5 10 1027.4 - 0.0 - - - - - - -
03/11:00am 10.6 NW 6 11 1027.7 - 0.0 - - - - - - -
03/10:30am 10.7 NW 3 7 1028.1 - 0.0 - - - - - - -
03/10:00am 9.7 WNW 3 7 1028.2 - 0.0 - - - - - - -
03/09:30am 9.9 WNW 5 10 1028.1 - 0.0 - - - - - - -
03/09:00am 8.6 WNW 2 5 1027.8 - 2.8 - - - - - - -
03/08:30am 8.6 W 3 6 1027.6 - 2.8 - - - - - - -
03/08:00am 8.4 W 3 4 1027.4 - 2.8 - - - - - - -
03/07:30am 8.0 W 4 7 1027.4 - 2.8 - - - - - - -
03/07:00am 7.7 W 3 5 1027.2 - 2.8 - - - - - - -
03/06:30am 8.0 WNW 3 5 1027.0 - 2.8 - - - - - - -
03/06:00am 7.8 W 4 6 1027.1 - 2.8 - - - - - - -
03/05:30am 7.8 W 3 5 1027.1 - 2.8 - - - - - - -
03/05:00am 8.4 WSW 4 6 1027.1 - 2.8 - - - - - - -
03/04:30am 8.8 WSW 6 10 1027.1 - 2.8 - - - - - - -
03/04:00am 8.6 SW 4 6 1027.1 - 2.8 - - - - - - -
03/03:30am 8.8 SW 5 7 1027.2 - 2.8 - - - - - - -
03/03:00am 9.1 SW 5 8 1027.3 - 2.8 - - - - - - -
03/02:30am 8.8 SW 5 7 1027.6 - 2.8 - - - - - - -
03/02:00am 8.4 W 5 8 1027.5 - 2.8 - - - - - - -
03/01:30am 9.3 SW 5 8 1027.4 - 2.8 - - - - - - -
03/01:00am 9.1 SW 6 9 1027.5 - 2.8 - - - - - - -
03/12:30am 9.2 SW 6 10 1027.6 - 2.8 - - - - - - -
03/12:00am 9.5 SW 7 12 1027.7 - 2.8 - - - - - - -
 
Date/Time
EST
Temp

°C
Wind Pressure Rain
since 9am
mm
Weather Cloud Vis
km
Sea
Height
m
Swell
Dir
 
Speed
knots
Gust
knots
hPa Trend Height
m
Period
s
Dir
02/11:30pm 9.7 SW 5 9 1027.7 - 2.8 - - - - - - -
02/11:00pm 9.7 SSW 8 12 1027.7 - 2.8 - - - - - - -
02/10:30pm 9.8 SW 8 15 1027.8 - 2.8 - - - - - - -
02/10:00pm 9.7 SW 7 12 1027.8 - 2.8 - - - - - - -
02/09:30pm 9.9 SW 9 14 1027.5 - 2.8 - - - - - - -
02/09:00pm 9.9 SW 8 14 1027.2 - 2.8 - - - - - - -
02/08:30pm 9.3 SW 7 12 1027.1 - 2.8 - - - - - - -
02/08:00pm 8.9 SW 9 17 1026.8 - 2.8 - - - - - - -
02/07:30pm 9.8 SW 9 14 1026.6 - 2.4 - - - - - - -
02/07:00pm 9.8 SW 9 14 1026.1 - 2.4 - - - - - - -
02/06:30pm 10.1 SW 10 15 1025.9 - 2.4 - - - - - - -
02/06:00pm 9.6 SW 7 12 1025.7 - 2.4 - - - - - - -
02/05:30pm 9.6 SW 8 15 1025.5 - 2.4 - - - - - - -
02/05:00pm 9.8 SW 8 13 1025.3 - 2.4 - - - - - - -
02/04:30pm 10.5 SW 12 19 1024.8 - 2.4 - - - - - - -

Other Formats:

Comma delimited format used in spreadsheet applications
http://www.bom.gov.au/fwo/IDV60701/IDV60701.94892.axf

JavaScript Object Notation format (JSON) in row-major order
http://www.bom.gov.au/fwo/IDV60701/IDV60701.94892.json